Time;durP1;ratioP1;P1;durP2;ratioP2;P2;SDS_P1;SDS_P2;PMS_P1;PMS_P2;Temp;Humidity;BMP_temperature;BMP_pressure;BME280_temperature;BME280_humidity;BME280_pressure;Samples;Min_cycle;Max_cycle;Signal;HPM_P1;HPM_P2
2021/10/02 00:02:19;;;;;;;;;6.50;4.00;;;;;15.37;95.62;101087.28;5079776;27;45338;-61
2021/10/02 00:45:38;;;;;;;;;6.50;6.50;;;;;14.98;96.90;101068.81;5079474;28;45325;-59
2021/10/02 00:48:04;;;;;;;;;10.75;7.75;;;;;14.98;96.92;101068.81;5080177;27;45425;-59
2021/10/02 00:50:29;;;;;;;;;9.00;6.00;;;;;15.01;97.19;101077.41;5079567;27;45380;-59
2021/10/02 00:52:55;;;;;;;;;8.25;7.50;;;;;15.04;97.15;101071.22;5076626;28;46180;-59
2021/10/02 00:55:20;;;;;;;;;7.25;6.25;;;;;15.09;96.90;101075.34;5080748;27;45378;-59
2021/10/02 00:57:46;;;;;;;;;7.75;6.75;;;;;15.16;96.97;101060.22;5081866;28;45471;-59
2021/10/02 01:00:11;;;;;;;;;8.00;8.00;;;;;15.20;96.82;101062.66;5082020;27;45371;-59
2021/10/02 01:02:37;;;;;;;;;7.75;7.00;;;;;15.27;96.79;101065.88;5082050;27;46019;-59
2021/10/02 01:05:14;;;;;;;;;7.00;6.67;;;;;15.32;96.56;101063.06;5079542;28;45406;-59
2021/10/02 01:08:01;;;;;;;;;7.75;7.75;;;;;15.36;96.40;101067.25;5082909;28;45279;-58
2021/10/02 01:10:40;;;;;;;;;7.00;7.00;;;;;15.32;96.45;101058.69;5082331;28;45306;-59
2021/10/02 01:13:31;;;;;;;;;7.00;7.00;;;;;15.29;96.38;101057.97;5082212;27;47290;-59
2021/10/02 01:16:11;;;;;;;;;7.00;7.00;;;;;15.31;96.76;101059.59;5082527;28;45433;-59
2021/10/02 01:18:43;;;;;;;;;11.75;8.25;;;;;15.36;96.71;101064.63;5070428;27;45294;-60
2021/10/02 01:21:17;;;;;;;;;11.00;8.75;;;;;15.43;96.45;101071.34;5082419;27;45573;-59
2021/10/02 01:23:48;;;;;;;;;10.50;9.00;;;;;15.48;96.36;101070.22;5074486;27;45266;-59
2021/10/02 01:26:58;;;;;;;;;8.25;8.00;;;;;15.51;96.32;101059.59;5077016;28;45861;-59
2021/10/02 01:29:26;;;;;;;;;16.00;10.00;;;;;15.46;96.05;101066.81;5100267;27;45630;-59
2021/10/02 01:32:14;;;;;;;;;10.50;9.75;;;;;15.48;96.25;101059.75;5100415;27;45480;-59
2021/10/02 01:35:06;;;;;;;;;9.50;8.50;;;;;15.51;96.23;101058.75;5079253;27;45378;-59
2021/10/02 01:48:50;;;;;;;;;9.00;9.00;;;;;15.57;95.31;101015.72;5082119;28;45322;-60
2021/10/02 01:51:17;;;;;;;;;10.00;8.50;;;;;15.58;95.16;101014.78;5081972;27;45299;-60
2021/10/02 01:53:44;;;;;;;;;11.50;10.00;;;;;15.59;94.84;101013.91;5081458;27;45499;-60
2021/10/02 01:56:16;;;;;;;;;11.75;7.00;;;;;15.58;94.96;101006.94;5081492;27;45423;-59
2021/10/02 01:58:44;;;;;;;;;9.75;8.00;;;;;15.58;94.81;101004.31;5081399;27;45802;-60
2021/10/02 02:01:10;;;;;;;;;7.75;7.50;;;;;15.57;94.77;101000.00;5082110;27;45295;-60
2021/10/02 02:03:41;;;;;;;;;11.50;8.00;;;;;15.59;94.89;100992.94;5081306;27;45354;-59
2021/10/02 02:06:09;;;;;;;;;8.50;7.00;;;;;15.60;94.60;101000.75;5081802;27;45320;-59
2021/10/02 02:08:36;;;;;;;;;11.50;8.50;;;;;15.61;94.45;101004.22;5081562;27;45720;-58
2021/10/02 02:11:04;;;;;;;;;7.00;5.00;;;;;15.62;94.19;100998.09;5081896;27;45280;-59
2021/10/02 02:13:30;;;;;;;;;7.75;7.25;;;;;15.61;94.48;101001.59;5081112;28;45310;-58
2021/10/02 02:15:59;;;;;;;;;5.50;5.50;;;;;15.60;94.42;100999.88;5081552;27;46193;-59
2021/10/02 02:18:26;;;;;;;;;4.00;4.00;;;;;15.62;94.30;100995.47;5069575;27;45320;-58
2021/10/02 02:20:57;;;;;;;;;9.00;6.50;;;;;15.63;94.23;100984.91;5081778;27;45461;-59
2021/10/02 02:23:25;;;;;;;;;8.00;8.00;;;;;15.65;94.29;100992.69;5081345;27;45440;-59
2021/10/02 02:25:52;;;;;;;;;10.00;8.00;;;;;15.61;93.98;100997.19;5081335;27;45390;-59
2021/10/02 02:28:19;;;;;;;;;7.50;6.00;;;;;15.56;94.13;100993.06;5080864;27;45318;-59
2021/10/02 02:30:45;;;;;;;;;6.75;6.25;;;;;15.58;94.44;100984.22;5081483;27;45299;-60
2021/10/02 02:33:11;;;;;;;;;6.25;6.00;;;;;15.61;94.09;100980.63;5081219;27;45394;-59
2021/10/02 02:35:36;;;;;;;;;8.00;6.00;;;;;15.64;93.94;100980.53;5081168;28;45399;-59
2021/10/02 02:38:02;;;;;;;;;6.50;5.75;;;;;15.65;93.90;100963.88;5096991;27;45310;-59
2021/10/02 02:40:28;;;;;;;;;6.25;5.00;;;;;15.66;93.59;100958.56;5081278;28;45358;-59
2021/10/02 02:42:53;;;;;;;;;7.00;6.25;;;;;15.67;93.44;100951.56;5074054;27;45381;-59
2021/10/02 02:45:20;;;;;;;;;7.00;7.00;;;;;15.68;93.57;100950.63;5073118;28;46021;-59
2021/10/02 02:48:02;;;;;;;;;6.00;4.50;;;;;15.65;93.38;100951.63;5080284;27;45338;-59
2021/10/02 02:50:38;;;;;;;;;4.75;4.00;;;;;15.63;93.52;100976.19;5080332;27;45434;-59
2021/10/02 02:53:16;;;;;;;;;6.00;6.00;;;;;15.61;93.43;100962.28;5077296;28;45755;-59
2021/10/02 02:55:51;;;;;;;;;5.00;5.00;;;;;15.61;93.42;100949.19;5078015;28;46187;-59
2021/10/02 02:58:19;;;;;;;;;4.75;4.75;;;;;15.57;93.39;100934.50;5078240;27;45363;-62
2021/10/02 03:00:56;;;;;;;;;5.75;5.75;;;;;15.53;93.38;100933.81;5078357;27;45532;-62
2021/10/02 03:03:32;;;;;;;;;6.25;4.50;;;;;15.50;93.40;100945.28;5078093;27;45569;-61
2021/10/02 03:06:02;;;;;;;;;5.25;5.25;;;;;15.42;93.32;100942.16;5078448;27;46198;-61
2021/10/02 03:08:34;;;;;;;;;6.75;4.00;;;;;15.37;93.69;100936.25;5077525;27;45895;-63
2021/10/02 03:11:03;;;;;;;;;7.75;5.25;;;;;15.32;93.63;100935.59;5078722;28;45398;-62
2021/10/02 03:13:35;;;;;;;;;5.50;5.00;;;;;15.30;94.32;100924.34;5077783;27;45291;-59
2021/10/02 03:16:03;;;;;;;;;6.00;5.00;;;;;15.26;93.99;100908.84;5078217;28;45465;-59
2021/10/02 03:18:34;;;;;;;;;4.75;4.75;;;;;15.25;94.45;100902.75;5066523;27;45914;-60
2021/10/02 03:21:00;;;;;;;;;7.00;5.75;;;;;15.24;94.37;100916.78;5078465;27;45426;-60
2021/10/02 03:23:27;;;;;;;;;7.00;5.00;;;;;15.16;95.31;100932.78;5078929;28;45434;-60
2021/10/02 03:25:54;;;;;;;;;7.00;4.50;;;;;15.11;95.39;100928.69;5080722;27;45355;-59
2021/10/02 03:28:21;;;;;;;;;6.25;4.75;;;;;15.05;95.41;100934.19;5079474;28;45644;-60
2021/10/02 03:30:46;;;;;;;;;8.50;5.50;;;;;15.05;95.17;100919.34;5080575;27;45378;-59
2021/10/02 03:33:13;;;;;;;;;5.50;4.25;;;;;15.08;95.10;100911.34;5080396;27;45204;-60
2021/10/02 03:35:40;;;;;;;;;4.50;4.25;;;;;15.09;95.26;100894.72;5080224;28;46404;-60
2021/10/02 03:38:05;;;;;;;;;6.50;4.25;;;;;15.13;95.13;100895.44;5080319;27;45659;-60
2021/10/02 03:40:32;;;;;;;;;5.25;5.25;;;;;15.16;95.05;100887.44;5080577;27;45745;-60
2021/10/02 03:42:58;;;;;;;;;6.25;6.25;;;;;15.18;94.92;100883.00;5072532;27;45495;-60
2021/10/02 03:45:27;;;;;;;;;6.00;6.00;;;;;15.17;94.99;100878.66;5072881;28;46293;-60
2021/10/02 03:47:53;;;;;;;;;6.25;5.75;;;;;15.17;94.73;100862.97;5079287;27;45309;-65
2021/10/02 03:50:18;;;;;;;;;6.50;6.50;;;;;15.16;94.86;100869.97;5080303;27;45333;-65
2021/10/02 03:52:44;;;;;;;;;8.75;6.00;;;;;15.12;94.99;100873.66;5079983;27;45318;-65
2021/10/02 03:55:12;;;;;;;;;8.50;8.00;;;;;15.08;94.98;100866.84;5079865;27;46061;-64
2021/10/02 03:57:38;;;;;;;;;8.00;7.75;;;;;15.06;95.07;100868.69;5079529;27;45710;-62
2021/10/02 04:00:05;;;;;;;;;9.75;8.50;;;;;15.05;95.51;100876.63;5080108;27;45348;-62
2021/10/02 04:02:31;;;;;;;;;9.50;9.00;;;;;15.04;95.28;100891.47;5080011;27;45556;-64
2021/10/02 04:04:56;;;;;;;;;9.00;7.50;;;;;15.04;95.43;100886.22;5079359;27;45347;-61
2021/10/02 04:07:21;;;;;;;;;10.00;8.50;;;;;15.04;95.49;100888.84;5080090;27;45278;-60
2021/10/02 04:09:47;;;;;;;;;8.50;6.75;;;;;15.03;95.43;100860.97;5080061;27;45545;-59
2021/10/02 04:12:12;;;;;;;;;11.50;10.00;;;;;15.02;95.46;100850.56;5079624;27;45435;-59
2021/10/02 04:14:37;;;;;;;;;9.75;8.50;;;;;14.96;95.75;100854.28;5079564;27;45343;-59
2021/10/02 04:17:03;;;;;;;;;9.50;8.75;;;;;14.94;95.86;100869.22;5075087;27;45349;-59
2021/10/02 04:19:28;;;;;;;;;11.25;10.00;;;;;14.90;95.94;100873.72;5075359;28;45317;-59
2021/10/02 04:21:54;;;;;;;;;9.25;8.25;;;;;14.90;96.20;100873.72;5082082;28;45397;-59
2021/10/02 04:24:20;;;;;;;;;8.00;8.00;;;;;14.93;96.15;100871.91;5083063;28;45917;-59
2021/10/02 04:26:45;;;;;;;;;7.75;7.25;;;;;14.95;96.17;100872.69;5083242;27;45407;-59
2021/10/02 04:29:11;;;;;;;;;10.75;8.00;;;;;14.93;96.53;100866.66;5083081;28;45528;-59
2021/10/02 04:31:36;;;;;;;;;8.50;8.50;;;;;14.93;96.29;100872.75;5083194;27;45321;-59
2021/10/02 04:34:02;;;;;;;;;8.25;6.50;;;;;14.97;96.70;100870.84;5082863;28;46050;-59
2021/10/02 04:36:28;;;;;;;;;13.75;9.50;;;;;14.97;96.51;100866.47;5083186;27;45373;-59
2021/10/02 04:38:56;;;;;;;;;11.50;9.00;;;;;14.99;96.75;100869.00;5082940;27;45418;-59
2021/10/02 04:41:21;;;;;;;;;17.50;9.50;;;;;15.02;97.00;100882.00;5083002;27;45231;-61
2021/10/02 04:43:47;;;;;;;;;9.25;9.00;;;;;15.05;96.47;100882.69;5080901;28;45937;-61
2021/10/02 04:46:15;;;;;;;;;9.75;9.00;;;;;15.07;96.68;100866.91;5081348;27;45362;-61
2021/10/02 04:48:41;;;;;;;;;13.50;10.25;;;;;15.09;96.98;100852.84;5083158;28;45311;-59
2021/10/02 04:51:09;;;;;;;;;16.50;12.00;;;;;15.11;96.96;100853.63;5081918;27;45582;-61
2021/10/02 04:53:35;;;;;;;;;12.75;8.50;;;;;15.15;96.92;100859.56;5081706;27;45237;-60
2021/10/02 04:56:05;;;;;;;;;14.75;9.75;;;;;15.13;97.17;100858.78;5081456;27;45690;-58
2021/10/02 04:58:31;;;;;;;;;10.25;8.75;;;;;15.09;97.22;100852.84;5081945;27;45338;-58
2021/10/02 05:00:58;;;;;;;;;12.25;11.75;;;;;15.13;97.13;100854.41;5082610;27;45310;-58
2021/10/02 05:03:23;;;;;;;;;10.00;10.00;;;;;15.16;97.59;100864.72;5082145;27;46419;-58
2021/10/02 05:05:49;;;;;;;;;12.50;11.00;;;;;15.16;97.22;100879.59;5082729;27;45390;-58
2021/10/02 05:08:14;;;;;;;;;14.25;11.25;;;;;15.18;97.28;100869.91;5082709;27;45229;-58
2021/10/02 05:10:40;;;;;;;;;9.25;9.25;;;;;15.20;97.30;100883.75;5082501;27;45378;-58
2021/10/02 05:13:06;;;;;;;;;13.75;12.25;;;;;15.24;97.14;100877.50;5081889;27;46166;-58
2021/10/02 05:15:33;;;;;;;;;10.25;9.25;;;;;15.27;97.31;100872.13;5082557;27;45153;-58
2021/10/02 05:17:58;;;;;;;;;12.25;9.50;;;;;15.30;97.02;100866.75;5070836;27;45383;-59
2021/10/02 05:20:23;;;;;;;;;11.50;10.25;;;;;15.31;97.01;100871.06;5082651;27;45294;-58
2021/10/02 05:22:49;;;;;;;;;11.00;9.75;;;;;15.29;96.79;100854.56;5081957;27;46254;-59
2021/10/02 05:25:14;;;;;;;;;14.50;12.25;;;;;15.29;97.15;100849.34;5082384;27;45268;-61
2021/10/02 05:27:40;;;;;;;;;15.00;10.75;;;;;15.27;96.70;100840.69;5081668;27;45548;-62
2021/10/02 05:30:06;;;;;;;;;12.75;7.75;;;;;15.28;97.01;100847.63;5081570;27;45334;-62
2021/10/02 05:32:32;;;;;;;;;14.25;10.50;;;;;15.26;97.00;100840.78;5081740;27;46858;-62
2021/10/02 05:34:57;;;;;;;;;13.50;10.00;;;;;15.25;97.15;100828.59;5082240;27;45310;-62
2021/10/02 05:37:23;;;;;;;;;14.50;10.50;;;;;15.25;96.98;100831.22;5081992;27;45254;-66
2021/10/02 05:39:49;;;;;;;;;12.75;9.25;;;;;15.26;97.07;100827.69;5081987;27;45179;-63
2021/10/02 05:42:15;;;;;;;;;11.25;9.25;;;;;15.25;96.80;100815.50;5079916;27;46074;-62
2021/10/02 05:44:40;;;;;;;;;14.00;8.25;;;;;15.21;97.32;100814.78;5068987;28;45233;-61
2021/10/02 05:47:06;;;;;;;;;9.50;9.25;;;;;15.17;97.15;100813.22;5081542;27;45219;-62
2021/10/02 05:49:31;;;;;;;;;11.75;9.00;;;;;15.18;97.32;100807.06;5081602;27;45524;-63
2021/10/02 05:51:57;;;;;;;;;8.00;6.25;;;;;15.19;97.09;100807.00;5081776;28;45246;-60
2021/10/02 05:54:22;;;;;;;;;9.50;6.75;;;;;15.20;97.23;100806.06;5081542;28;45611;-60
2021/10/02 05:56:48;;;;;;;;;7.00;7.00;;;;;15.19;96.98;100793.06;5081622;27;45353;-59
2021/10/02 05:59:13;;;;;;;;;10.00;7.50;;;;;15.20;97.18;100815.69;5080273;28;45301;-65
2021/10/02 06:01:39;;;;;;;;;9.50;9.00;;;;;15.20;97.30;100819.16;5081609;27;45351;-69
2021/10/02 06:04:04;;;;;;;;;11.50;10.00;;;;;15.22;96.92;100811.28;5080623;28;45346;-69
2021/10/02 06:06:29;;;;;;;;;8.75;8.00;;;;;15.15;96.94;100808.06;5081435;27;45959;-76
2021/10/02 06:08:55;;;;;;;;;7.50;7.50;;;;;15.18;97.06;100818.38;5081231;27;45266;-73
2021/10/02 06:11:20;;;;;;;;;13.75;8.25;;;;;15.17;96.43;100811.47;5081017;27;45416;-70
2021/10/02 06:13:47;;;;;;;;;14.25;7.00;;;;;15.18;96.71;100807.91;5080682;27;45350;-70
2021/10/02 06:16:13;;;;;;;;;7.00;7.00;;;;;15.20;96.64;100813.09;5081240;27;45334;-71
2021/10/02 06:18:39;;;;;;;;;9.75;8.00;;;;;15.17;96.70;100819.31;5079785;28;45280;-71
2021/10/02 06:21:06;;;;;;;;;7.25;6.50;;;;;15.17;97.06;100818.47;5081300;27;45228;-70
2021/10/02 06:23:32;;;;;;;;;8.75;5.00;;;;;15.13;96.98;100823.00;5080463;28;45619;-68
2021/10/02 06:25:57;;;;;;;;;11.00;8.25;;;;;15.12;97.12;100809.97;5080693;27;45404;-67
2021/10/02 06:28:22;;;;;;;;;8.50;6.50;;;;;15.14;96.71;100802.91;5077174;27;45618;-64
2021/10/02 06:30:48;;;;;;;;;6.75;4.00;;;;;15.16;96.73;100796.66;5079287;27;46097;-65
2021/10/02 06:33:13;;;;;;;;;6.50;5.50;;;;;15.15;96.70;100783.66;5079967;27;45301;-69
2021/10/02 06:35:39;;;;;;;;;5.00;5.00;;;;;15.16;96.52;100780.13;5080671;27;45211;-69
2021/10/02 06:38:04;;;;;;;;;5.00;5.00;;;;;15.14;96.49;100781.97;5080385;27;45414;-69
2021/10/02 06:40:30;;;;;;;;;3.75;3.75;;;;;15.15;96.18;100794.97;5088734;27;47463;-69
2021/10/02 06:42:56;;;;;;;;;5.50;4.00;;;;;15.17;95.72;100797.53;5083365;27;45446;-69
2021/10/02 06:45:22;;;;;;;;;5.25;5.25;;;;;15.20;95.89;100794.75;5084389;27;45754;-70
2021/10/02 06:47:47;;;;;;;;;5.25;4.00;;;;;15.24;95.26;100787.63;5079987;28;45438;-69
2021/10/02 06:50:13;;;;;;;;;7.25;3.75;;;;;15.25;94.92;100797.19;5074434;28;45396;-73
2021/10/02 06:52:38;;;;;;;;;3.00;3.00;;;;;15.21;94.58;100797.31;5079900;27;45358;-67
2021/10/02 06:55:07;;;;;;;;;4.00;2.75;;;;;15.20;94.32;100803.47;5080050;28;45408;-70
2021/10/02 06:57:33;;;;;;;;;2.50;2.50;;;;;15.21;94.32;100799.91;5079717;27;45939;-73
2021/10/02 06:59:58;;;;;;;;;6.00;4.00;;;;;15.26;94.18;100801.50;5079690;27;46190;-71
2021/10/02 07:02:23;;;;;;;;;3.50;3.50;;;;;15.29;93.70;100791.72;5077161;27;45416;-67
2021/10/02 07:04:49;;;;;;;;;3.00;3.00;;;;;15.32;93.58;100781.13;5079701;28;45315;-68
2021/10/02 07:07:15;;;;;;;;;4.00;3.25;;;;;15.35;92.90;100782.72;5079647;27;45474;-71
2021/10/02 07:09:40;;;;;;;;;3.00;3.00;;;;;15.34;92.62;100783.66;5077425;27;46292;-62
2021/10/02 07:12:06;;;;;;;;;4.00;4.00;;;;;15.30;92.48;100796.03;5079637;27;45427;-71
2021/10/02 07:14:31;;;;;;;;;3.00;3.00;;;;;15.28;92.52;100795.28;5079795;27;45414;-62
2021/10/02 07:16:57;;;;;;;;;3.25;3.00;;;;;15.28;92.79;100805.75;5079096;27;45391;-61
2021/10/02 07:19:22;;;;;;;;;3.50;3.00;;;;;15.30;92.28;100803.91;5078919;27;46272;-60
2021/10/02 07:21:47;;;;;;;;;6.75;4.00;;;;;15.33;91.93;100800.28;5079937;27;45432;-60
2021/10/02 07:24:16;;;;;;;;;3.00;2.25;;;;;15.36;91.70;100794.91;5080229;27;45278;-65
2021/10/02 07:26:43;;;;;;;;;8.25;3.75;;;;;15.41;91.33;100777.19;5080044;27;45587;-60
2021/10/02 07:29:10;;;;;;;;;4.75;3.00;;;;;15.40;90.96;100754.56;5080325;28;45437;-63
2021/10/02 07:31:36;;;;;;;;;5.00;3.00;;;;;15.48;90.58;100753.28;5080039;27;45373;-62
2021/10/02 07:34:02;;;;;;;;;6.50;5.50;;;;;15.56;90.00;100767.78;5080501;27;45414;-63
2021/10/02 07:36:28;;;;;;;;;4.25;3.00;;;;;15.59;89.62;100763.28;5079843;28;45322;-63
2021/10/02 07:38:55;;;;;;;;;3.00;3.00;;;;;15.66;88.20;100754.22;5080034;27;47161;-62
2021/10/02 07:41:21;;;;;;;;;4.25;4.00;;;;;15.62;87.08;100754.44;5079839;27;45219;-62
2021/10/02 07:43:54;;;;;;;;;4.50;3.75;;;;;15.62;87.21;100747.44;5080101;27;45438;-62
2021/10/02 07:46:20;;;;;;;;;3.75;1.75;;;;;15.76;88.28;100749.38;5078696;28;46119;-62
2021/10/02 07:48:46;;;;;;;;;4.75;4.00;;;;;15.90;87.79;100743.47;5079930;27;45232;-61
2021/10/02 07:51:12;;;;;;;;;14.75;10.75;;;;;16.00;87.42;100748.16;5095461;27;45413;-69
2021/10/02 07:53:39;;;;;;;;;6.75;4.00;;;;;16.06;86.21;100753.13;5079285;27;45235;-65
2021/10/02 07:56:07;;;;;;;;;2.50;2.00;;;;;16.01;85.55;100747.22;5079783;27;45306;-62
2021/10/02 07:58:33;;;;;;;;;4.00;2.50;;;;;15.98;85.71;100754.41;5079279;27;45314;-63
2021/10/02 08:00:58;;;;;;;;;5.00;2.25;;;;;15.94;85.14;100745.84;5079856;28;45639;-63
2021/10/02 08:03:24;;;;;;;;;4.00;3.00;;;;;15.91;85.32;100742.53;5079490;27;45338;-62
2021/10/02 08:05:50;;;;;;;;;5.25;3.00;;;;;15.90;85.30;100740.84;5079940;27;45238;-67
2021/10/02 08:08:17;;;;;;;;;4.50;3.75;;;;;15.91;84.58;100739.91;5079715;27;45166;-68
2021/10/02 08:10:44;;;;;;;;;7.50;3.00;;;;;15.91;84.46;100745.16;5079941;28;45563;-67
2021/10/02 08:13:13;;;;;;;;;4.00;4.00;;;;;15.87;83.99;100733.97;5079334;27;45353;-69
2021/10/02 08:15:55;;;;;;;;;6.50;4.00;;;;;15.90;83.22;100731.19;5079470;27;45283;-64
2021/10/02 08:18:24;;;;;;;;;4.25;3.25;;;;;15.83;83.65;100729.81;5073550;28;47636;-65
2021/10/02 08:20:52;;;;;;;;;5.50;3.00;;;;;15.84;83.66;100715.78;5076743;28;45334;-66
2021/10/02 08:23:22;;;;;;;;;6.25;4.00;;;;;15.91;83.27;100714.56;5076427;27;45219;-66
2021/10/02 08:25:48;;;;;;;;;2.75;2.00;;;;;15.87;82.44;100709.53;5078921;27;45456;-66
2021/10/02 08:28:15;;;;;;;;;2.75;2.75;;;;;15.86;82.84;100707.84;5078355;27;45378;-64
2021/10/02 08:30:42;;;;;;;;;5.25;4.50;;;;;15.96;83.01;100696.81;5073540;27;45420;-65
2021/10/02 08:33:10;;;;;;;;;7.75;4.75;;;;;15.99;82.33;100707.13;5076111;27;45398;-63
2021/10/02 08:35:36;;;;;;;;;4.00;3.00;;;;;16.00;81.97;100703.59;5079094;27;45605;-63
2021/10/02 08:38:01;;;;;;;;;4.00;3.00;;;;;16.03;81.99;100695.59;5077953;27;45323;-64
2021/10/02 08:40:27;;;;;;;;;4.00;3.25;;;;;16.09;82.26;100700.53;5077473;27;45366;-65
2021/10/02 08:42:54;;;;;;;;;3.75;3.25;;;;;16.13;81.15;100690.72;5074893;27;45341;-62
2021/10/02 08:45:20;;;;;;;;;5.00;5.00;;;;;16.16;81.46;100687.94;5075085;28;45198;-64
2021/10/02 08:47:46;;;;;;;;;5.75;4.00;;;;;16.16;80.79;100666.09;5077558;27;46288;-64
2021/10/02 08:50:17;;;;;;;;;6.00;3.00;;;;;16.17;80.45;100659.94;5077626;27;45413;-65
2021/10/02 08:52:43;;;;;;;;;6.50;3.50;;;;;16.08;79.47;100669.13;5075359;27;45461;-66
2021/10/02 08:55:11;;;;;;;;;6.00;4.00;;;;;16.00;79.61;100669.50;5075610;28;45504;-63
2021/10/02 08:57:38;;;;;;;;;6.50;4.75;;;;;15.97;80.67;100680.16;5077160;28;45341;-64
2021/10/02 09:00:13;;;;;;;;;7.00;4.00;;;;;16.01;80.57;100673.81;5077136;27;45863;-64
2021/10/02 09:02:38;;;;;;;;;4.75;3.25;;;;;16.11;80.25;100675.06;5065125;28;45433;-64
2021/10/02 09:05:07;;;;;;;;;8.00;4.50;;;;;16.23;80.47;100670.13;5078093;27;45367;-62
2021/10/02 09:07:34;;;;;;;;;5.00;4.50;;;;;16.34;80.11;100657.28;5081502;27;46373;-62
2021/10/02 09:10:02;;;;;;;;;5.25;5.25;;;;;16.34;79.88;100670.41;5081347;27;45326;-62
2021/10/02 09:12:29;;;;;;;;;6.75;3.00;;;;;16.30;79.13;100672.34;5081083;27;45294;-63
2021/10/02 09:14:56;;;;;;;;;4.75;3.50;;;;;16.29;78.96;100682.91;5079751;27;45462;-61
2021/10/02 09:17:22;;;;;;;;;5.50;5.00;;;;;16.35;79.50;100664.22;5074163;27;46328;-61
2021/10/02 09:19:48;;;;;;;;;5.00;3.50;;;;;16.51;79.17;100656.41;5076820;28;45468;-61
2021/10/02 09:22:22;;;;;;;;;5.00;5.00;;;;;16.72;79.26;100652.66;5081348;28;45224;-62
2021/10/02 09:24:52;;;;;;;;;4.00;2.00;;;;;16.89;78.72;100639.47;5081176;27;45440;-62
2021/10/02 09:27:24;;;;;;;;;4.00;4.00;;;;;17.07;77.24;100636.75;5080922;27;45986;-61
2021/10/02 09:29:56;;;;;;;;;6.00;5.00;;;;;17.22;76.18;100631.50;5080235;27;45643;-62
2021/10/02 09:32:29;;;;;;;;;7.00;4.75;;;;;17.30;75.08;100624.00;5081197;27;45472;-62
2021/10/02 09:34:58;;;;;;;;;5.00;4.00;;;;;17.41;74.09;100615.50;5081093;27;45490;-62
2021/10/02 09:37:32;;;;;;;;;5.25;3.25;;;;;17.66;74.94;100609.69;5080858;27;46170;-62
2021/10/02 09:40:10;;;;;;;;;6.00;4.50;;;;;17.86;74.49;100603.28;5081052;27;45632;-61
2021/10/02 09:42:48;;;;;;;;;8.25;5.50;;;;;17.91;73.28;100583.63;5077391;28;45341;-61
2021/10/02 09:45:16;;;;;;;;;5.00;5.00;;;;;18.03;74.13;100578.59;5076066;28;45458;-61
2021/10/02 09:47:43;;;;;;;;;7.00;5.50;;;;;18.16;73.74;100556.69;5084882;27;46208;-62
2021/10/02 09:50:14;;;;;;;;;6.50;5.50;;;;;18.39;73.67;100555.25;5077870;27;45596;-62
2021/10/02 09:52:48;;;;;;;;;7.25;4.75;;;;;18.51;70.34;100543.97;5080370;27;45398;-61
2021/10/02 09:55:18;;;;;;;;;6.00;4.00;;;;;18.57;69.43;100547.13;5077144;28;45475;-68
2021/10/02 09:57:46;;;;;;;;;4.00;3.50;;;;;18.88;69.30;100538.16;5079611;27;47046;-62
2021/10/02 10:00:15;;;;;;;;;5.50;5.00;;;;;19.41;65.76;100521.41;5076467;27;45323;-63
2021/10/02 10:02:43;;;;;;;;;5.25;3.75;;;;;19.60;66.34;100521.03;5079992;27;45453;-61
2021/10/02 10:05:10;;;;;;;;;3.75;3.50;;;;;19.69;66.59;100509.88;5079563;27;45441;-62
2021/10/02 10:07:35;;;;;;;;;4.00;3.25;;;;;19.84;65.24;100511.44;5079933;27;46341;-64
2021/10/02 10:10:11;;;;;;;;;5.75;2.50;;;;;20.00;65.56;100495.38;5079698;28;45672;-62
2021/10/02 10:12:38;;;;;;;;;3.50;3.00;;;;;20.36;64.91;100491.91;5075201;28;45319;-63
2021/10/02 10:15:06;;;;;;;;;4.00;3.00;;;;;20.55;64.71;100484.38;5078963;27;45535;-64
2021/10/02 10:17:32;;;;;;;;;3.50;2.75;;;;;20.57;59.59;100466.63;5079349;27;46956;-62
2021/10/02 10:20:09;;;;;;;;;2.75;1.00;;;;;20.43;62.99;100468.59;5079601;27;45743;-63
2021/10/02 10:22:35;;;;;;;;;3.25;2.50;;;;;20.45;62.80;100464.91;5077564;28;45278;-63
2021/10/02 10:25:08;;;;;;;;;2.50;2.50;;;;;20.49;62.97;100453.16;5077223;27;45599;-63
2021/10/02 10:27:57;;;;;;;;;2.75;1.75;;;;;20.59;62.73;100440.94;5076632;28;46405;-65
2021/10/02 10:30:24;;;;;;;;;3.50;2.25;;;;;20.82;60.63;100433.97;5078794;27;45827;-64
2021/10/02 10:32:58;;;;;;;;;4.00;3.25;;;;;20.75;60.55;100442.44;5077243;28;45307;-63
2021/10/02 10:35:26;;;;;;;;;2.75;2.25;;;;;20.59;61.68;100440.09;5076832;27;45449;-63
2021/10/02 10:37:52;;;;;;;;;3.00;3.00;;;;;20.48;60.40;100446.19;5079219;27;45457;-63
2021/10/02 10:40:17;;;;;;;;;3.75;3.75;;;;;20.29;61.52;100441.38;5079292;28;45401;-64
2021/10/02 10:42:43;;;;;;;;;3.00;3.00;;;;;20.23;62.18;100452.38;5079115;27;46364;-64
2021/10/02 10:45:08;;;;;;;;;3.00;3.00;;;;;20.29;61.76;100453.72;5077419;27;45583;-64
2021/10/02 10:47:34;;;;;;;;;2.75;2.00;;;;;20.18;61.52;100443.09;5079308;27;45356;-66
2021/10/02 10:50:00;;;;;;;;;7.25;5.75;;;;;20.04;61.84;100452.03;5076392;27;45861;-66
2021/10/02 10:52:25;;;;;;;;;3.00;3.00;;;;;19.86;60.75;100453.31;5079335;27;45434;-65
2021/10/02 10:54:52;;;;;;;;;2.25;2.25;;;;;19.63;61.70;100433.84;5078603;27;45551;-65
2021/10/02 10:57:37;;;;;;;;;2.00;1.50;;;;;19.47;61.17;100425.28;5078732;27;45356;-66
2021/10/02 11:00:31;;;;;;;;;2.50;1.50;;;;;19.37;61.27;100409.25;5073556;28;45580;-66
2021/10/02 11:03:04;;;;;;;;;3.00;2.00;;;;;19.18;61.73;100404.41;5076582;28;45382;-68
2021/10/02 11:05:35;;;;;;;;;2.50;2.50;;;;;19.12;62.30;100413.56;5077231;28;45578;-67
2021/10/02 11:08:06;;;;;;;;;2.00;2.00;;;;;19.06;62.53;100408.72;5078983;27;47112;-69
2021/10/02 11:10:40;;;;;;;;;4.25;2.50;;;;;19.13;63.02;100401.25;5076268;28;45308;-69
2021/10/02 11:13:06;;;;;;;;;7.00;4.00;;;;;19.18;63.55;100393.03;5078211;27;45418;-68
2021/10/02 11:15:32;;;;;;;;;3.00;3.00;;;;;19.27;63.19;100387.97;5080356;27;45156;-69
2021/10/02 11:17:57;;;;;;;;;4.00;3.00;;;;;19.31;62.35;100378.91;5069044;27;45959;-70
2021/10/02 11:20:25;;;;;;;;;4.25;3.50;;;;;19.31;62.09;100371.00;5080167;27;45279;-67
2021/10/02 11:23:28;;;;;;;;;2.00;2.00;;;;;19.32;62.22;100366.56;5080389;28;45268;-68
2021/10/02 11:26:23;;;;;;;;;3.00;1.75;;;;;19.32;62.72;100359.50;5080006;28;45764;-68
2021/10/02 11:29:09;;;;;;;;;2.75;2.50;;;;;19.32;62.71;100353.41;5093792;27;47208;-70
2021/10/02 11:31:35;;;;;;;;;3.00;3.00;;;;;19.22;63.18;100342.69;5080399;28;45322;-69
2021/10/02 11:34:02;;;;;;;;;5.00;3.00;;;;;19.27;63.58;100348.47;5080183;27;45383;-69
2021/10/02 11:39:15;;;;;;;;;3.00;3.00;;;;;19.26;64.46;100330.13;5080086;28;45245;-67
2021/10/02 11:41:49;;;;;;;;;2.00;2.00;;;;;19.31;64.85;100320.94;5079965;27;46256;-68
2021/10/02 11:44:32;;;;;;;;;3.25;2.50;;;;;19.40;64.88;100320.28;5078264;28;45413;-70
2021/10/02 11:47:37;;;;;;;;;4.25;2.25;;;;;19.40;65.36;100291.28;5079291;28;45292;-68
2021/10/02 11:50:12;;;;;;;;;3.00;3.00;;;;;19.28;65.70;100294.81;5069937;28;45984;-67
2021/10/02 11:52:57;;;;;;;;;5.75;2.50;;;;;19.15;66.51;100292.19;5079866;28;45496;-65
2021/10/02 11:55:40;;;;;;;;;3.75;3.75;;;;;19.09;66.58;100297.91;5079722;27;45297;-65
2021/10/02 11:58:12;;;;;;;;;3.00;3.00;;;;;19.08;67.18;100290.94;5078928;27;45328;-61
2021/10/02 12:00:40;;;;;;;;;4.25;1.50;;;;;19.07;66.92;100281.34;5079411;27;49011;-67
2021/10/02 12:03:06;;;;;;;;;4.50;3.50;;;;;19.06;67.29;100273.56;5072364;28;45360;-65
2021/10/02 12:05:32;;;;;;;;;4.00;2.75;;;;;19.00;67.09;100280.09;5079437;27;45464;-63
2021/10/02 12:07:58;;;;;;;;;4.50;4.50;;;;;18.87;67.86;100257.38;5079380;27;45459;-63
2021/10/02 12:10:24;;;;;;;;;3.75;2.75;;;;;18.90;67.91;100250.09;5079107;27;45486;-61
2021/10/02 12:12:50;;;;;;;;;5.50;4.00;;;;;18.89;68.08;100234.41;5078064;27;45796;-61
2021/10/02 12:15:32;;;;;;;;;9.75;3.00;;;;;18.85;68.07;100231.16;5076510;27;45421;-61
2021/10/02 12:17:58;;;;;;;;;7.50;5.75;;;;;18.83;68.37;100219.88;5062344;28;45465;-61
2021/10/02 12:20:42;;;;;;;;;6.00;4.50;;;;;18.73;68.27;100211.78;5079094;27;46359;-60
2021/10/02 12:23:10;;;;;;;;;6.00;4.00;;;;;18.70;69.13;100211.16;5079453;28;45464;-62
2021/10/02 12:25:35;;;;;;;;;2.00;2.00;;;;;18.63;68.84;100191.47;5079924;27;45420;-69
2021/10/02 12:28:01;;;;;;;;;7.00;7.00;;;;;18.65;69.08;100198.31;5078256;27;45259;-59